Time;durP1;ratioP1;P1;durP2;ratioP2;P2;SDS_P1;SDS_P2;PMS_P1;PMS_P2;Temp;Humidity;BMP_temperature;BMP_pressure;BME280_temperature;BME280_humidity;BME280_pressure;Samples;Min_cycle;Max_cycle;Signal;HPM_P1;HPM_P2
2022/06/05 00:00:27;;;;;;;16.57;14.17;;;10.70;99.90;;;;;;4980416;28;89163;-36
2022/06/05 00:03:04;;;;;;;18.13;11.82;;;10.70;99.90;;;;;;4980767;28;89927;-35
2022/06/05 00:05:43;;;;;;;18.20;14.10;;;10.60;99.90;;;;;;4981298;28;90074;-35
2022/06/05 00:08:22;;;;;;;22.92;13.13;;;10.60;99.90;;;;;;4980891;28;90168;-34
2022/06/05 00:10:50;;;;;;;18.98;14.52;;;10.60;99.90;;;;;;4980550;28;89663;-34
2022/06/05 00:13:24;;;;;;;16.40;13.63;;;10.60;99.90;;;;;;4980101;28;89429;-35
2022/06/05 00:15:50;;;;;;;14.25;12.00;;;10.60;99.90;;;;;;4980876;28;88184;-35
2022/06/05 00:18:16;;;;;;;19.42;14.13;;;10.60;99.90;;;;;;4980812;28;90314;-34
2022/06/05 00:20:43;;;;;;;17.77;13.32;;;10.60;99.90;;;;;;4980360;28;89882;-34
2022/06/05 00:23:09;;;;;;;18.83;11.95;;;10.60;99.90;;;;;;4981016;28;91611;-36
2022/06/05 00:25:50;;;;;;;20.10;13.75;;;10.60;99.90;;;;;;4980218;28;88210;-38
2022/06/05 00:28:28;;;;;;;16.85;13.05;;;10.60;99.90;;;;;;4980997;28;89784;-37
2022/06/05 00:31:02;;;;;;;17.00;13.27;;;10.50;99.90;;;;;;4980866;28;91644;-33
2022/06/05 00:33:35;;;;;;;21.80;13.68;;;10.60;99.90;;;;;;4979889;28;90886;-33
2022/06/05 00:36:38;;;;;;;22.05;14.70;;;10.60;99.90;;;;;;4980363;28;87891;-32
2022/06/05 00:39:28;;;;;;;23.58;13.50;;;10.50;99.90;;;;;;4980124;28;90999;-35
2022/06/05 00:42:05;;;;;;;21.42;14.15;;;10.50;99.90;;;;;;4980017;28;89801;-34
2022/06/05 00:44:37;;;;;;;18.55;13.77;;;10.50;99.90;;;;;;4980592;28;89312;-34
2022/06/05 00:47:04;;;;;;;20.15;13.35;;;10.50;99.90;;;;;;4980106;28;89462;-34
2022/06/05 00:49:41;;;;;;;18.40;12.80;;;10.50;99.90;;;;;;4980353;28;90131;-37
2022/06/05 00:52:10;;;;;;;17.57;12.97;;;10.50;99.90;;;;;;4980780;28;89823;-33
2022/06/05 00:54:36;;;;;;;14.38;12.70;;;10.50;99.90;;;;;;5023923;23;89742;-35
2022/06/05 00:57:07;;;;;;;18.58;12.68;;;10.50;99.90;;;;;;4960367;28;89550;-34
2022/06/05 00:59:33;;;;;;;20.95;14.85;;;10.50;99.90;;;;;;4959948;28;90974;-34
2022/06/05 01:01:58;;;;;;;19.75;13.48;;;10.50;99.90;;;;;;4960129;28;88413;-33
2022/06/05 01:04:25;;;;;;;23.13;14.63;;;10.50;99.90;;;;;;4960508;28;90260;-35
2022/06/05 01:06:52;;;;;;;19.08;14.55;;;10.50;99.90;;;;;;4960666;28;88909;-35
2022/06/05 01:09:18;;;;;;;16.15;14.32;;;10.50;99.90;;;;;;4960138;28;89898;-33
2022/06/05 01:12:06;;;;;;;18.42;13.02;;;10.50;99.90;;;;;;4959891;28;89436;-33
2022/06/05 01:15:04;;;;;;;;;;;10.50;99.90;;;;;;4961236;28;89812;-33
2022/06/05 01:17:43;;;;;;;21.92;16.63;;;10.50;99.90;;;;;;4960742;28;88512;-32
2022/06/05 01:20:27;;;;;;;21.85;15.93;;;10.50;99.90;;;;;;4959776;28;90633;-34
2022/06/05 01:23:17;;;;;;;16.27;13.65;;;10.50;99.90;;;;;;4959100;28;91563;-34
2022/06/05 01:25:55;;;;;;;21.02;15.00;;;10.40;99.90;;;;;;4959305;28;90636;-34
2022/06/05 01:28:23;;;;;;;;;;;10.50;99.90;;;;;;4960586;28;89319;-35
2022/06/05 01:31:18;;;;;;;19.00;14.40;;;10.40;99.90;;;;;;4961784;28;90153;-34
2022/06/05 01:33:54;;;;;;;25.55;17.08;;;10.50;99.90;;;;;;4959321;28;89744;-36
2022/06/05 01:36:43;;;;;;;19.85;15.32;;;10.50;99.90;;;;;;4959508;28;90088;-35
2022/06/05 01:39:28;;;;;;;28.27;15.02;;;10.50;99.90;;;;;;4960296;28;88875;-34
2022/06/05 01:41:58;;;;;;;24.33;16.20;;;10.50;99.90;;;;;;4959631;28;89783;-33
2022/06/05 01:44:39;;;;;;;17.60;15.05;;;10.40;99.90;;;;;;4960028;28;90693;-36
2022/06/05 01:47:10;;;;;;;22.58;14.48;;;10.40;99.90;;;;;;4959816;28;88986;-36
2022/06/05 01:50:13;;;;;;;22.52;15.45;;;10.40;99.90;;;;;;4959535;28;89856;-34
2022/06/05 01:52:58;;;;;;;20.80;15.55;;;10.40;99.90;;;;;;4958730;28;90338;-34
2022/06/05 01:55:33;;;;;;;20.70;16.30;;;10.40;99.90;;;;;;4959359;28;89305;-34
2022/06/05 01:58:03;;;;;;;30.00;15.52;;;10.40;99.90;;;;;;4959520;28;89586;-35
2022/06/05 02:00:29;;;;;;;28.15;16.20;;;10.40;99.90;;;;;;4959898;28;89673;-35
2022/06/05 02:02:57;;;;;;;20.58;15.75;;;10.50;99.90;;;;;;4959022;28;90133;-39
2022/06/05 02:05:26;;;;;;;;;;;10.50;99.90;;;;;;4960189;28;89570;-38
2022/06/05 02:07:57;;;;;;;20.95;17.00;;;10.40;99.90;;;;;;4961309;28;89510;-36
2022/06/05 02:10:28;;;;;;;22.60;16.35;;;10.40;99.90;;;;;;4960147;28;89167;-36
2022/06/05 02:12:56;;;;;;;20.77;15.77;;;10.40;99.90;;;;;;4958621;28;90610;-34
2022/06/05 02:15:22;;;;;;;19.45;16.15;;;10.50;99.90;;;;;;4958701;28;90575;-35
2022/06/05 02:17:50;;;;;;;22.05;15.77;;;10.50;99.90;;;;;;4959220;28;92218;-33
2022/06/05 02:20:16;;;;;;;26.58;15.60;;;10.50;99.90;;;;;;4958894;28;89193;-35
2022/06/05 02:22:49;;;;;;;26.77;16.73;;;10.50;99.90;;;;;;4958703;28;90218;-33
2022/06/05 02:25:20;;;;;;;23.02;17.20;;;10.50;99.90;;;;;;4958506;28;88998;-37
2022/06/05 02:27:46;;;;;;;22.55;16.88;;;10.50;99.90;;;;;;4959313;28;90597;-36
2022/06/05 02:30:15;;;;;;;22.95;16.35;;;10.50;99.90;;;;;;4958743;28;88880;-35
2022/06/05 02:33:09;;;;;;;25.42;16.67;;;10.50;99.90;;;;;;4958762;28;89696;-34
2022/06/05 02:36:13;;;;;;;23.38;17.10;;;10.50;99.90;;;;;;4958673;28;89905;-38
2022/06/05 02:38:55;;;;;;;29.27;18.75;;;10.50;99.90;;;;;;4958661;28;89692;-33
2022/06/05 02:41:48;;;;;;;22.63;17.92;;;10.50;99.90;;;;;;4959314;28;88330;-33
2022/06/05 02:44:29;;;;;;;33.63;18.50;;;10.50;99.90;;;;;;4958572;28;89902;-34
2022/06/05 02:47:18;;;;;;;24.63;16.35;;;10.50;99.90;;;;;;4957087;28;89392;-36
2022/06/05 02:50:01;;;;;;;25.63;18.90;;;10.40;99.90;;;;;;4958686;28;90428;-34
2022/06/05 02:52:30;;;;;;;22.33;16.88;;;10.40;99.90;;;;;;4959474;28;87851;-37
2022/06/05 02:55:01;;;;;;;25.95;17.92;;;10.40;99.90;;;;;;4958290;28;90571;-33
2022/06/05 02:57:27;;;;;;;27.38;18.88;;;10.40;99.90;;;;;;4958625;28;90015;-34
2022/06/05 02:59:52;;;;;;;26.98;17.85;;;10.40;99.90;;;;;;4958805;28;89813;-34
2022/06/05 03:05:03;;;;;;;22.05;18.25;;;10.40;99.90;;;;;;4958873;28;90312;-36
2022/06/05 03:07:29;;;;;;;23.25;17.55;;;10.40;99.90;;;;;;4957789;28;92090;-35
2022/06/05 03:09:55;;;;;;;24.77;16.80;;;10.40;99.90;;;;;;4958054;28;90523;-34
2022/06/05 03:12:20;;;;;;;22.05;18.58;;;10.40;99.90;;;;;;4958558;28;89426;-32
2022/06/05 03:14:46;;;;;;;23.63;18.55;;;10.40;99.90;;;;;;4957901;28;90166;-33
2022/06/05 03:17:12;;;;;;;28.98;19.02;;;10.40;99.90;;;;;;4958867;28;89598;-34
2022/06/05 03:19:37;;;;;;;28.95;20.08;;;10.50;99.90;;;;;;4957641;28;88714;-33
2022/06/05 03:22:03;;;;;;;21.52;17.67;;;10.50;99.90;;;;;;4958719;28;90149;-32
2022/06/05 03:24:29;;;;;;;26.55;17.85;;;10.50;99.90;;;;;;4958829;28;90225;-34
2022/06/05 03:26:54;;;;;;;22.80;17.65;;;10.60;99.90;;;;;;4958172;28;89058;-38
2022/06/05 03:29:21;;;;;;;28.67;20.85;;;10.60;99.90;;;;;;4958505;28;89662;-35
2022/06/05 03:31:46;;;;;;;25.75;18.10;;;10.60;99.90;;;;;;4957150;28;90314;-33
2022/06/05 03:34:12;;;;;;;24.90;19.42;;;10.60;99.90;;;;;;4958549;28;90193;-34
2022/06/05 03:36:37;;;;;;;25.95;18.60;;;10.70;99.90;;;;;;4957761;28;90275;-35
2022/06/05 03:39:03;;;;;;;26.35;18.02;;;10.70;99.90;;;;;;4958267;28;89587;-35
2022/06/05 03:41:29;;;;;;;24.63;18.08;;;10.70;99.90;;;;;;4958548;28;88046;-34
2022/06/05 03:43:55;;;;;;;25.02;18.05;;;10.80;99.90;;;;;;4959979;28;90446;-37
2022/06/05 03:46:20;;;;;;;26.65;20.95;;;10.80;99.90;;;;;;4961988;28;89494;-35
2022/06/05 03:48:46;;;;;;;27.40;19.13;;;10.80;99.90;;;;;;4961089;28;89621;-35
2022/06/05 03:51:15;;;;;;;28.58;19.15;;;10.80;99.90;;;;;;4962383;28;88205;-33
2022/06/05 03:53:41;;;;;;;27.90;19.05;;;10.80;99.90;;;;;;4961411;28;89601;-37
2022/06/05 03:56:11;;;;;;;23.55;17.52;;;10.80;99.90;;;;;;4960275;28;90366;-35
2022/06/05 03:58:37;;;;;;;26.58;18.65;;;10.90;99.90;;;;;;4960731;28;90239;-34
2022/06/05 04:01:06;;;;;;;35.28;19.23;;;10.90;99.90;;;;;;4961050;28;89391;-35
2022/06/05 04:03:31;;;;;;;22.58;18.15;;;10.90;99.90;;;;;;4960918;28;90396;-37
2022/06/05 04:05:57;;;;;;;22.92;19.17;;;10.90;99.90;;;;;;4961234;28;90095;-34
2022/06/05 04:08:22;;;;;;;26.02;19.48;;;10.90;99.90;;;;;;4961519;28;89207;-34
2022/06/05 04:10:48;;;;;;;20.05;17.45;;;11.00;99.90;;;;;;4960959;28;88071;-36
2022/06/05 04:13:14;;;;;;;24.05;19.15;;;11.00;99.90;;;;;;4961061;28;90687;-36
2022/06/05 04:15:40;;;;;;;26.95;17.48;;;11.00;99.90;;;;;;4961137;28;89749;-36
2022/06/05 04:18:06;;;;;;;24.83;19.02;;;11.10;99.90;;;;;;4961127;28;89849;-33
2022/06/05 04:20:33;;;;;;;25.10;17.10;;;11.00;99.90;;;;;;4960209;28;90424;-34
2022/06/05 04:22:58;;;;;;;27.90;19.30;;;11.10;99.90;;;;;;4961013;28;90239;-34
2022/06/05 04:25:24;;;;;;;24.85;19.98;;;11.10;99.90;;;;;;4959251;28;90010;-36
2022/06/05 04:27:51;;;;;;;27.23;18.60;;;11.20;99.90;;;;;;4961043;28;90038;-34
2022/06/05 04:30:17;;;;;;;29.65;19.77;;;11.20;99.90;;;;;;4960819;28;89028;-34
2022/06/05 04:32:43;;;;;;;22.98;18.17;;;11.40;99.90;;;;;;4960237;28;90519;-37
2022/06/05 04:35:09;;;;;;;24.60;19.48;;;11.60;99.90;;;;;;4960861;28;89527;-33
2022/06/05 04:37:36;;;;;;;23.75;18.77;;;11.80;99.90;;;;;;4960722;28;90482;-34
2022/06/05 04:40:04;;;;;;;28.45;18.73;;;12.00;99.90;;;;;;4960416;28;88999;-34
2022/06/05 04:42:30;;;;;;;27.55;19.77;;;12.20;99.90;;;;;;4960710;28;92040;-34
2022/06/05 04:44:56;;;;;;;25.52;18.40;;;12.30;99.90;;;;;;4959823;28;90788;-37
2022/06/05 04:47:22;;;;;;;28.52;20.17;;;12.50;99.90;;;;;;4960831;28;88955;-34
2022/06/05 04:49:48;;;;;;;25.80;18.23;;;12.60;99.90;;;;;;4960694;28;88102;-35
2022/06/05 04:52:13;;;;;;;26.02;17.77;;;12.80;99.90;;;;;;4960527;28;90172;-34
2022/06/05 04:54:39;;;;;;;24.83;18.17;;;12.80;99.90;;;;;;4957915;28;89744;-39
2022/06/05 04:57:05;;;;;;;28.13;19.58;;;12.90;99.90;;;;;;4960777;28;88588;-35
2022/06/05 04:59:30;;;;;;;27.35;18.80;;;13.10;99.90;;;;;;4960322;28;89191;-33
2022/06/05 05:01:56;;;;;;;24.30;18.42;;;13.20;99.90;;;;;;4960720;28;88801;-33
2022/06/05 05:04:22;;;;;;;23.52;18.17;;;13.30;99.90;;;;;;4959573;28;90119;-34
2022/06/05 05:06:47;;;;;;;22.33;17.00;;;13.50;99.90;;;;;;4960278;28;89516;-36
2022/06/05 05:09:13;;;;;;;21.85;18.23;;;13.60;99.90;;;;;;4959965;28;90550;-33
2022/06/05 05:11:39;;;;;;;28.70;18.50;;;13.70;99.90;;;;;;4959508;28;89828;-33
2022/06/05 05:14:05;;;;;;;21.73;17.35;;;13.90;99.90;;;;;;4959803;28;89793;-34
2022/06/05 05:16:31;;;;;;;22.05;18.67;;;13.90;99.90;;;;;;4960070;28;90074;-34
2022/06/05 05:18:57;;;;;;;21.02;17.20;;;14.00;99.90;;;;;;4960130;28;89172;-35
2022/06/05 05:21:25;;;;;;;22.52;18.35;;;13.90;99.90;;;;;;4960702;28;89838;-35
2022/06/05 05:23:51;;;;;;;20.50;16.75;;;14.00;99.90;;;;;;4959672;28;90128;-35
2022/06/05 05:26:27;;;;;;;19.92;16.83;;;14.10;99.90;;;;;;4960063;28;89684;-33
2022/06/05 05:28:55;;;;;;;20.60;15.90;;;14.20;99.90;;;;;;4960053;28;89668;-33
2022/06/05 05:31:32;;;;;;;20.77;18.27;;;14.10;99.90;;;;;;4960138;28;90541;-33
2022/06/05 05:33:59;;;;;;;28.85;17.13;;;14.20;99.90;;;;;;4959203;28;90607;-35
2022/06/05 05:36:25;;;;;;;20.77;16.30;;;14.10;99.90;;;;;;4959472;28;89963;-33
2022/06/05 05:44:22;;;;;;;21.80;16.48;;;14.30;99.90;;;;;;4959534;28;88679;-36
2022/06/05 05:46:48;;;;;;;22.55;15.68;;;14.30;99.90;;;;;;4959633;28;89623;-34
2022/06/05 05:49:14;;;;;;;20.58;17.05;;;14.40;99.90;;;;;;4959578;28;89346;-34
2022/06/05 05:51:41;;;;;;;22.35;16.55;;;14.40;99.90;;;;;;4959037;28;90002;-36
2022/06/05 05:54:07;;;;;;;18.85;15.98;;;14.50;99.90;;;;;;4959251;28;89595;-33
2022/06/05 05:56:33;;;;;;;17.42;15.27;;;14.50;99.90;;;;;;4959437;28;89659;-32
2022/06/05 05:58:58;;;;;;;20.42;17.38;;;14.50;99.90;;;;;;4959143;28;90223;-37
2022/06/05 06:01:25;;;;;;;18.70;16.63;;;14.50;99.90;;;;;;4958657;28;90246;-36
2022/06/05 06:03:50;;;;;;;21.60;16.00;;;14.60;99.90;;;;;;4958701;28;88782;-37
2022/06/05 06:06:18;;;;;;;24.67;17.88;;;14.70;99.90;;;;;;4959183;28;89583;-36
2022/06/05 06:08:43;;;;;;;18.73;14.10;;;14.70;99.90;;;;;;4959030;28;88962;-38
2022/06/05 06:11:09;;;;;;;19.85;15.80;;;14.80;99.90;;;;;;4958995;28;89043;-34
2022/06/05 06:13:35;;;;;;;18.17;15.95;;;14.80;99.90;;;;;;4959196;28;91379;-35
2022/06/05 06:16:00;;;;;;;18.50;15.20;;;14.90;99.90;;;;;;4958913;28;89775;-34
2022/06/05 06:18:26;;;;;;;18.70;15.10;;;14.90;99.90;;;;;;4960287;28;89017;-37
2022/06/05 06:20:51;;;;;;;20.20;14.25;;;15.00;99.90;;;;;;4958113;28;90165;-35
2022/06/05 06:23:17;;;;;;;18.73;15.52;;;15.10;99.90;;;;;;4965063;28;90283;-35
2022/06/05 06:25:43;;;;;;;22.00;14.63;;;15.10;99.90;;;;;;4966334;28;89901;-36
2022/06/05 06:28:10;;;;;;;27.27;16.73;;;15.30;99.90;;;;;;4959238;28;89971;-35
2022/06/05 06:30:36;;;;;;;18.45;15.75;;;15.30;99.90;;;;;;4958496;28;90223;-38
2022/06/05 06:33:02;;;;;;;23.75;16.13;;;15.40;99.90;;;;;;4958989;28;89498;-37
2022/06/05 06:35:28;;;;;;;16.40;12.77;;;15.60;99.90;;;;;;4959541;28;90614;-34
2022/06/05 06:37:54;;;;;;;18.98;15.20;;;15.60;99.90;;;;;;4958919;28;87692;-33
2022/06/05 06:40:20;;;;;;;20.40;15.10;;;15.70;99.90;;;;;;4958553;28;90505;-37
2022/06/05 06:42:45;;;;;;;22.52;14.68;;;15.70;99.90;;;;;;4958964;28;89488;-32
2022/06/05 06:45:11;;;;;;;17.00;14.80;;;15.70;99.90;;;;;;4958758;28;89387;-33
2022/06/05 06:47:37;;;;;;;21.27;15.23;;;15.80;99.90;;;;;;4958943;28;89939;-36
2022/06/05 06:50:04;;;;;;;22.85;15.45;;;16.00;99.90;;;;;;4958492;28;90532;-32
2022/06/05 06:52:29;;;;;;;22.48;14.90;;;16.20;99.90;;;;;;4958889;28;88414;-34
2022/06/05 06:54:55;;;;;;;15.13;13.48;;;16.50;99.90;;;;;;4957821;28;89424;-37
2022/06/05 06:57:21;;;;;;;16.85;15.07;;;16.60;99.90;;;;;;4958865;28;88911;-37
2022/06/05 06:59:46;;;;;;;20.85;15.20;;;16.80;99.90;;;;;;4958539;28;88937;-35
2022/06/05 07:02:12;;;;;;;16.70;13.95;;;16.80;99.90;;;;;;4958602;28;90280;-34
2022/06/05 07:04:38;;;;;;;16.70;13.98;;;16.90;99.90;;;;;;4958281;28;89503;-35
2022/06/05 07:07:03;;;;;;;25.45;15.13;;;17.00;99.90;;;;;;4959072;28;88503;-37
2022/06/05 07:09:30;;;;;;;14.65;13.10;;;17.10;99.90;;;;;;4957351;28;90456;-36
2022/06/05 07:11:56;;;;;;;22.05;13.05;;;17.20;99.90;;;;;;4957728;28;90584;-38
2022/06/05 07:14:21;;;;;;;15.50;13.32;;;17.60;99.90;;;;;;4957946;28;92032;-34
2022/06/05 07:16:47;;;;;;;18.38;13.07;;;17.80;99.90;;;;;;4958420;28;88964;-35
2022/06/05 07:19:13;;;;;;;14.13;12.70;;;18.00;99.90;;;;;;4961328;28;90262;-36
2022/06/05 07:21:38;;;;;;;17.40;14.38;;;18.40;99.90;;;;;;4961637;28;89545;-36
2022/06/05 07:24:04;;;;;;;15.68;11.30;;;18.20;99.90;;;;;;4961796;28;89071;-34
2022/06/05 07:26:32;;;;;;;14.98;12.23;;;18.10;99.90;;;;;;4961746;28;88436;-34
2022/06/05 07:28:58;;;;;;;16.92;13.32;;;18.10;99.90;;;;;;4961452;28;90280;-34
2022/06/05 07:31:27;;;;;;;17.42;12.07;;;18.20;99.90;;;;;;4961724;28;89663;-37
2022/06/05 07:33:53;;;;;;;12.95;11.73;;;18.20;99.90;;;;;;4961776;28;89217;-33
2022/06/05 07:36:20;;;;;;;12.77;11.57;;;18.20;99.90;;;;;;4961290;28;88885;-35
2022/06/05 07:38:47;;;;;;;12.93;11.13;;;18.40;99.90;;;;;;4961064;28;90296;-33
2022/06/05 07:41:20;;;;;;;16.17;13.20;;;18.60;99.90;;;;;;4961813;28;89555;-35
2022/06/05 07:43:46;;;;;;;13.07;11.70;;;18.70;99.90;;;;;;4961295;28;90402;-33
2022/06/05 07:46:12;;;;;;;12.98;10.80;;;18.80;99.90;;;;;;4961716;28;89101;-37
2022/06/05 07:48:39;;;;;;;13.77;12.38;;;18.90;99.90;;;;;;4960884;28;89508;-34
2022/06/05 07:56:37;;;;;;;12.27;11.02;;;19.20;99.90;;;;;;4961207;28;88891;-33
2022/06/05 07:59:02;;;;;;;12.25;10.98;;;19.10;99.90;;;;;;4959508;28;90264;-34
2022/06/05 08:01:28;;;;;;;12.35;11.05;;;19.30;99.90;;;;;;4958106;28;91319;-35
2022/06/05 08:03:54;;;;;;;14.60;11.93;;;19.40;99.90;;;;;;4957319;28;91516;-35
2022/06/05 08:06:19;;;;;;;14.90;10.40;;;19.40;99.90;;;;;;4958538;28;88372;-35
2022/06/05 08:08:45;;;;;;;18.13;10.57;;;19.60;99.90;;;;;;4958112;28;91558;-37
2022/06/05 08:11:10;;;;;;;10.93;9.20;;;19.70;99.90;;;;;;4958117;28;89737;-36
2022/06/05 08:13:36;;;;;;;11.13;9.82;;;19.80;99.90;;;;;;4959738;28;89737;-37
2022/06/05 08:16:02;;;;;;;11.25;10.07;;;19.80;99.90;;;;;;4959260;28;88658;-36
2022/06/05 08:18:28;;;;;;;11.75;9.90;;;19.80;99.90;;;;;;4958574;28;90697;-35
2022/06/05 08:20:54;;;;;;;10.80;9.68;;;19.90;99.90;;;;;;4959240;28;89134;-34
2022/06/05 08:23:19;;;;;;;11.70;10.48;;;19.90;99.90;;;;;;4958706;28;89579;-36
2022/06/05 08:25:45;;;;;;;11.73;9.93;;;20.00;99.90;;;;;;4958911;28;90011;-34
2022/06/05 08:28:11;;;;;;;11.90;10.18;;;20.00;99.90;;;;;;4957733;28;89577;-33
2022/06/05 08:30:38;;;;;;;11.43;10.20;;;20.00;99.90;;;;;;4950873;28;90113;-34
2022/06/05 08:33:05;;;;;;;10.90;9.80;;;20.10;99.90;;;;;;4957918;28;90423;-35
2022/06/05 08:35:30;;;;;;;10.85;9.73;;;20.00;99.90;;;;;;4958420;28;88770;-35
2022/06/05 08:43:49;;;;;;;12.55;11.30;;;20.30;99.90;;;;;;4958024;28;89770;-34
2022/06/05 08:46:32;;;;;;;13.73;11.18;;;20.30;99.90;;;;;;4958280;28;88851;-35
2022/06/05 08:49:08;;;;;;;12.60;10.68;;;20.40;99.90;;;;;;4958526;28;90206;-35
2022/06/05 08:51:45;;;;;;;12.52;11.30;;;20.70;99.90;;;;;;4952454;28;90348;-34
2022/06/05 08:54:17;;;;;;;12.37;11.27;;;20.80;99.90;;;;;;4957581;28;90099;-38
2022/06/05 08:57:03;;;;;;;11.90;10.75;;;20.90;99.90;;;;;;4958108;28;88278;-37
2022/06/05 08:59:49;;;;;;;11.55;10.23;;;20.90;99.90;;;;;;4957223;28;90251;-37
2022/06/05 09:02:21;;;;;;;11.98;9.45;;;21.10;99.90;;;;;;4958497;28;90057;-37
2022/06/05 09:05:01;;;;;;;12.10;10.88;;;21.30;99.90;;;;;;4958094;28;90390;-35
2022/06/05 09:07:37;;;;;;;11.77;10.45;;;21.30;99.90;;;;;;4957901;28;89339;-34
2022/06/05 09:10:15;;;;;;;10.40;8.85;;;21.60;99.90;;;;;;4958614;28;90245;-35
2022/06/05 09:12:54;;;;;;;15.30;11.13;;;21.80;99.90;;;;;;4958140;28;89557;-34
2022/06/05 09:15:27;;;;;;;10.95;9.93;;;21.60;99.90;;;;;;4958153;28;89306;-35
2022/06/05 09:17:59;;;;;;;11.52;10.43;;;21.80;99.90;;;;;;4957340;28;90147;-34
2022/06/05 09:20:40;;;;;;;11.82;10.68;;;22.10;99.90;;;;;;4957317;28;91800;-36
2022/06/05 09:23:15;;;;;;;10.27;9.38;;;21.90;99.90;;;;;;4956734;28;89697;-35
2022/06/05 09:26:13;;;;;;;12.30;11.10;;;21.80;99.90;;;;;;4956999;28;90348;-33
2022/06/05 09:29:00;;;;;;;13.63;11.05;;;22.00;99.90;;;;;;4956028;28;88570;-36
2022/06/05 09:31:41;;;;;;;11.73;10.63;;;22.00;99.90;;;;;;4956774;28;90869;-36
2022/06/05 09:34:38;;;;;;;13.85;10.68;;;22.30;99.90;;;;;;4963777;28;89280;-36
2022/06/05 09:37:09;;;;;;;14.55;11.20;;;22.30;99.90;;;;;;4953494;28;89711;-37
2022/06/05 09:39:46;;;;;;;12.02;10.45;;;22.30;99.90;;;;;;4957416;28;89260;-38
2022/06/05 09:42:40;;;;;;;11.30;9.52;;;22.60;99.90;;;;;;4956397;28;90389;-34
2022/06/05 09:45:18;;;;;;;11.32;10.20;;;22.50;99.90;;;;;;4957659;28;90952;-37
2022/06/05 09:48:02;;;;;;;10.85;9.68;;;22.70;99.90;;;;;;4948638;28;90416;-34
2022/06/05 09:50:29;;;;;;;12.80;11.60;;;23.00;99.90;;;;;;4957184;28;88838;-34
2022/06/05 09:52:55;;;;;;;11.00;9.90;;;23.10;99.90;;;;;;4956941;28;90932;-37
2022/06/05 09:55:35;;;;;;;13.52;10.85;;;23.10;99.90;;;;;;4957184;28;89792;-34
2022/06/05 09:58:25;;;;;;;10.32;9.32;;;22.90;99.90;;;;;;4957547;28;88002;-33
2022/06/05 10:00:59;;;;;;;13.15;10.15;;;22.80;99.90;;;;;;4957373;28;88482;-36
2022/06/05 10:03:35;;;;;;;10.80;9.80;;;22.90;99.90;;;;;;4956910;28;90686;-37
2022/06/05 10:06:23;;;;;;;10.82;9.82;;;22.90;99.90;;;;;;4956480;28;90110;-34
2022/06/05 10:09:11;;;;;;;10.18;9.15;;;23.10;99.90;;;;;;4953657;28;89441;-35
2022/06/05 10:11:55;;;;;;;11.15;9.00;;;23.40;99.90;;;;;;4957037;28;89869;-34
2022/06/05 10:14:42;;;;;;;12.10;10.90;;;23.50;99.90;;;;;;4951791;28;90640;-34
2022/06/05 10:17:37;;;;;;;10.25;9.35;;;23.40;98.30;;;;;;4956576;28;89126;-36
2022/06/05 10:20:08;;;;;;;10.75;9.85;;;23.50;99.90;;;;;;4956468;28;90218;-38
2022/06/05 10:22:34;;;;;;;10.70;9.52;;;23.60;99.90;;;;;;4957118;28;89007;-37
2022/06/05 10:25:24;;;;;;;9.48;8.68;;;23.70;99.90;;;;;;4957476;28;88789;-35
2022/06/05 10:27:53;;;;;;;9.77;8.90;;;23.70;99.90;;;;;;4950440;28;89942;-36
2022/06/05 10:30:22;;;;;;;11.40;10.50;;;23.50;99.90;;;;;;4956843;28;89725;-34
2022/06/05 10:33:00;;;;;;;11.38;10.27;;;23.50;99.70;;;;;;4956069;28;88526;-39
2022/06/05 10:35:28;;;;;;;12.00;10.80;;;23.80;99.90;;;;;;4956069;28;90234;-37
2022/06/05 10:38:24;;;;;;;11.63;10.65;;;23.80;99.90;;;;;;4955235;28;90276;-34
2022/06/05 10:40:54;;;;;;;12.23;11.10;;;24.00;99.90;;;;;;4953474;28;90318;-37
2022/06/05 10:43:29;;;;;;;11.85;10.57;;;23.70;99.90;;;;;;4955980;28;89471;-35
2022/06/05 10:46:24;;;;;;;12.50;11.43;;;23.50;99.90;;;;;;4955459;28;90537;-34
2022/06/05 10:49:07;;;;;;;10.77;9.70;;;23.60;99.90;;;;;;4955696;28;89295;-35
2022/06/05 10:51:47;;;;;;;13.13;11.85;;;23.70;99.90;;;;;;4955658;28;89387;-34
2022/06/05 10:54:45;;;;;;;14.77;11.68;;;23.80;99.90;;;;;;4955351;28;89188;-34
2022/06/05 10:57:27;;;;;;;12.50;10.98;;;23.60;99.90;;;;;;4959906;28;91157;-37
2022/06/05 11:00:04;;;;;;;12.18;11.05;;;23.80;99.90;;;;;;4959254;28;89877;-34
2022/06/05 11:02:47;;;;;;;11.80;10.63;;;23.80;99.90;;;;;;4959796;28;91830;-34
2022/06/05 11:05:48;;;;;;;11.23;10.32;;;24.00;99.90;;;;;;4959156;28;90108;-40
2022/06/05 11:08:26;;;;;;;11.52;10.55;;;23.90;99.90;;;;;;4934082;28;90172;-36
2022/06/05 11:14:12;;;;;;;11.60;10.50;;;23.70;99.90;;;;;;4951634;28;90508;-35
2022/06/05 11:17:01;;;;;;;13.02;12.02;;;23.70;99.90;;;;;;4958999;28;88156;-35
2022/06/05 11:19:43;;;;;;;11.45;10.40;;;23.70;99.90;;;;;;4958705;28;90135;-35
2022/06/05 11:22:14;;;;;;;13.63;12.35;;;23.70;99.90;;;;;;4959037;28;89678;-36
2022/06/05 11:24:48;;;;;;;14.60;12.05;;;23.70;99.90;;;;;;4959714;28;90223;-36
2022/06/05 11:27:28;;;;;;;11.27;10.45;;;23.70;99.90;;;;;;4959443;28;88155;-34
2022/06/05 11:30:11;;;;;;;11.93;10.75;;;23.80;99.90;;;;;;4958690;28;90001;-37
2022/06/05 11:33:09;;;;;;;12.93;11.73;;;23.80;99.90;;;;;;4958562;28;90449;-34
2022/06/05 11:36:04;;;;;;;11.27;10.20;;;23.80;99.90;;;;;;4959017;28;90330;-36
2022/06/05 11:39:01;;;;;;;14.00;12.52;;;23.80;99.90;;;;;;4956879;28;88312;-35
2022/06/05 11:42:18;;;;;;;13.27;11.25;;;23.70;99.90;;;;;;4958961;28;91833;-34
2022/06/05 11:44:55;;;;;;;12.02;10.98;;;23.60;99.90;;;;;;4954740;28;90065;-35
2022/06/05 11:47:42;;;;;;;12.32;11.05;;;23.50;99.90;;;;;;4957053;28;90765;-36
2022/06/05 11:50:25;;;;;;;12.93;11.63;;;23.30;99.90;;;;;;4957845;28;88505;-36
2022/06/05 11:53:02;;;;;;;11.23;10.32;;;23.20;99.90;;;;;;4957128;28;89780;-36
2022/06/05 11:55:39;;;;;;;11.65;10.75;;;23.30;99.90;;;;;;4956878;28;90177;-35
2022/06/05 11:58:13;;;;;;;13.57;12.48;;;23.30;99.90;;;;;;4958515;28;89644;-37
2022/06/05 12:00:46;;;;;;;12.25;11.15;;;23.20;99.90;;;;;;4953913;28;89145;-34
2022/06/05 12:03:23;;;;;;;18.25;12.02;;;23.10;99.90;;;;;;4958058;28;90313;-37
2022/06/05 12:06:09;;;;;;;12.50;11.50;;;23.10;99.90;;;;;;4955019;28;89994;-35
2022/06/05 12:08:41;;;;;;;14.80;13.40;;;23.00;99.90;;;;;;4957442;28;89592;-36
2022/06/05 12:11:20;;;;;;;13.70;12.18;;;22.90;99.90;;;;;;4958262;28;88465;-36
2022/06/05 12:13:52;;;;;;;11.52;10.50;;;23.00;99.90;;;;;;4958548;28;90071;-36
2022/06/05 12:17:00;;;;;;;12.30;11.10;;;23.00;99.90;;;;;;4957967;28;90580;-37
2022/06/05 12:19:44;;;;;;;;;;;22.90;99.90;;;;;;4955911;28;88224;-37
2022/06/05 12:22:25;;;;;;;12.40;11.30;;;22.90;99.90;;;;;;4962216;28;88351;-35
2022/06/05 12:25:06;;;;;;;14.52;13.10;;;22.90;99.90;;;;;;4964155;28;90160;-34
2022/06/05 12:27:50;;;;;;;11.38;10.25;;;23.00;99.90;;;;;;4962724;28;90753;-38
2022/06/05 12:30:26;;;;;;;12.05;10.85;;;23.00;99.90;;;;;;4958230;28;90377;-37
2022/06/05 12:33:16;;;;;;;11.90;10.68;;;23.00;99.90;;;;;;4957115;28;89826;-34
2022/06/05 12:35:46;;;;;;;12.60;11.35;;;23.00;99.90;;;;;;4957582;28;91765;-34
2022/06/05 12:38:33;;;;;;;12.55;10.48;;;23.00;99.90;;;;;;4957189;28;89672;-37
2022/06/05 12:41:13;;;;;;;11.25;10.18;;;23.10;99.90;;;;;;4957406;28;89399;-38
2022/06/05 12:44:16;;;;;;;12.43;11.32;;;23.00;99.90;;;;;;4957465;28;88746;-37
2022/06/05 12:46:47;;;;;;;12.02;10.85;;;23.10;99.90;;;;;;4954265;28;90268;-38
2022/06/05 12:50:00;;;;;;;12.15;11.15;;;23.10;99.90;;;;;;4957095;28;89343;-34
2022/06/05 12:52:38;;;;;;;12.13;11.10;;;23.20;99.90;;;;;;4958784;28;89415;-37
2022/06/05 12:55:39;;;;;;;12.60;11.30;;;23.20;99.90;;;;;;4992569;23;92967;-36
2022/06/05 12:58:16;;;;;;;11.95;10.18;;;23.30;99.90;;;;;;4965667;28;89977;-36
2022/06/05 13:00:56;;;;;;;11.55;10.55;;;23.30;99.90;;;;;;4977062;28;90020;-35
2022/06/05 13:03:36;;;;;;;10.43;9.63;;;23.40;99.90;;;;;;4977497;28;89455;-38
2022/06/05 13:06:11;;;;;;;10.55;9.65;;;23.40;99.90;;;;;;4978353;28;89391;-34
2022/06/05 13:08:48;;;;;;;10.60;9.60;;;23.40;99.90;;;;;;4977731;28;90086;-37
2022/06/05 13:11:27;;;;;;;11.95;9.80;;;23.40;99.90;;;;;;4977998;28;90063;-36
2022/06/05 13:14:07;;;;;;;11.38;10.38;;;23.50;99.90;;;;;;4978383;28;90402;-34
2022/06/05 13:16:44;;;;;;;11.52;10.45;;;23.60;99.90;;;;;;4976883;28;89606;-35
2022/06/05 13:19:36;;;;;;;13.37;10.70;;;23.60;99.90;;;;;;4976933;28;91543;-36
2022/06/05 13:22:23;;;;;;;10.70;9.77;;;23.50;99.90;;;;;;4977035;28;89465;-34